Time;durP1;ratioP1;P1;durP2;ratioP2;P2;SDS_P1;SDS_P2;PMS_P1;PMS_P2;Temp;Humidity;BMP_temperature;BMP_pressure;BME280_temperature;BME280_humidity;BME280_pressure;Samples;Min_cycle;Max_cycle;Signal;HPM_P1;HPM_P2
2023/01/06 00:00:30;;;;;;;4.45;1.45;;;;;;;8.55;69.16;99150.72;1724873;82;21099;-60
2023/01/06 00:02:56;;;;;;;4.20;1.80;;;;;;;8.57;69.20;99174.67;1727070;81;21524;-60
2023/01/06 00:05:23;;;;;;;3.40;1.27;;;;;;;8.57;69.27;99171.56;1742082;81;21045;-59
2023/01/06 00:07:50;;;;;;;3.65;1.50;;;;;;;8.52;69.18;99158.05;1690908;83;21062;-59
2023/01/06 00:10:17;;;;;;;3.62;1.50;;;;;;;8.49;69.21;99164.41;1694893;82;21017;-59
2023/01/06 00:12:47;;;;;;;3.83;1.40;;;;;;;8.48;69.34;99169.79;1685134;82;21117;-59
2023/01/06 00:15:15;;;;;;;4.05;1.42;;;;;;;8.47;69.49;99167.66;1713457;82;21245;-59
2023/01/06 00:17:42;;;;;;;3.47;1.30;;;;;;;8.47;68.82;99180.77;1702213;82;21138;-60
2023/01/06 00:20:11;;;;;;;4.90;1.62;;;;;;;8.47;68.70;99170.28;1746401;81;21120;-59
2023/01/06 00:22:39;;;;;;;6.42;1.65;;;;;;;8.46;68.81;99188.77;1698223;83;21056;-60
2023/01/06 00:25:09;;;;;;;3.35;1.27;;;;;;;8.38;69.09;99187.61;1692671;83;21099;-59
2023/01/06 00:27:38;;;;;;;3.30;1.15;;;;;;;8.37;68.90;99172.88;1690959;83;21241;-60
2023/01/06 00:30:07;;;;;;;3.25;1.30;;;;;;;8.41;68.70;99188.33;1712117;82;21144;-59
2023/01/06 00:32:34;;;;;;;4.22;1.40;;;;;;;8.44;68.56;99186.75;1718507;82;21562;-59
2023/01/06 00:35:02;;;;;;;5.20;1.45;;;;;;;8.44;68.60;99191.53;1711428;82;21514;-59
2023/01/06 00:37:28;;;;;;;2.65;1.07;;;;;;;8.44;68.80;99192.84;1714077;82;21028;-60
2023/01/06 00:39:55;;;;;;;5.28;1.30;;;;;;;8.44;68.84;99203.78;1718194;82;21234;-60
2023/01/06 00:42:23;;;;;;;4.33;1.45;;;;;;;8.43;68.80;99191.66;1708794;82;21090;-60
2023/01/06 00:44:50;;;;;;;3.12;1.10;;;;;;;8.46;69.39;99212.36;1704079;82;21098;-60
2023/01/06 00:47:16;;;;;;;5.22;1.50;;;;;;;8.48;69.00;99215.67;1699409;82;21126;-59
2023/01/06 00:49:43;;;;;;;3.75;1.12;;;;;;;8.41;69.05;99218.47;1688731;84;21076;-59
2023/01/06 00:52:10;;;;;;;3.37;1.00;;;;;;;8.32;69.29;99220.09;1707190;82;21319;-60
2023/01/06 00:54:37;;;;;;;4.08;1.22;;;;;;;8.27;69.49;99219.22;1703308;82;21122;-60
2023/01/06 00:57:05;;;;;;;2.55;0.80;;;;;;;8.28;69.48;99220.04;1689674;82;21130;-60
2023/01/06 00:59:32;;;;;;;3.20;1.10;;;;;;;8.32;69.42;99226.19;1706297;82;21122;-59
2023/01/06 01:02:01;;;;;;;3.27;1.10;;;;;;;8.30;69.19;99227.28;1705263;83;21566;-59
2023/01/06 01:04:28;;;;;;;2.92;0.88;;;;;;;8.22;69.77;99223.20;1710076;82;21259;-60
2023/01/06 01:06:54;;;;;;;4.17;1.20;;;;;;;8.18;70.10;99229.20;1704410;82;21019;-60
2023/01/06 01:09:25;;;;;;;2.90;0.90;;;;;;;8.15;70.14;99228.16;1710964;82;21062;-59
2023/01/06 01:12:08;;;;;;;4.70;1.22;;;;;;;8.18;70.13;99227.89;1725419;82;21097;-60
2023/01/06 01:14:46;;;;;;;3.12;0.98;;;;;;;8.21;70.17;99231.55;1718902;81;21027;-60
2023/01/06 01:17:25;;;;;;;2.33;0.88;;;;;;;8.14;70.61;99235.19;1689150;81;21214;-60
2023/01/06 01:19:54;;;;;;;3.08;0.90;;;;;;;8.06;71.11;99237.66;1726896;81;21533;-60
2023/01/06 01:22:22;;;;;;;2.92;0.82;;;;;;;8.07;71.12;99234.55;1720326;82;21062;-60
2023/01/06 01:24:48;;;;;;;3.85;0.85;;;;;;;8.08;70.82;99238.34;1693019;83;21086;-60
2023/01/06 01:27:14;;;;;;;3.45;0.98;;;;;;;8.06;70.87;99242.08;1690046;82;21117;-60
2023/01/06 01:29:41;;;;;;;3.22;0.95;;;;;;;8.07;71.13;99248.95;1693363;83;21201;-60
2023/01/06 01:32:08;;;;;;;3.45;1.02;;;;;;;8.11;71.09;99245.13;1701357;83;21058;-60
2023/01/06 01:34:36;;;;;;;2.90;0.90;;;;;;;8.09;70.87;99241.81;1696493;83;21074;-60
2023/01/06 01:37:03;;;;;;;2.80;0.90;;;;;;;8.05;70.82;99246.95;1699548;83;21516;-60
2023/01/06 01:39:29;;;;;;;2.95;0.93;;;;;;;8.08;70.80;99250.62;1706455;83;21495;-61
2023/01/06 01:41:58;;;;;;;2.70;0.72;;;;;;;8.11;70.70;99254.29;1702885;83;21065;-60
2023/01/06 01:44:55;;;;;;;3.47;1.05;;;;;;;8.08;70.74;99249.31;1704797;83;21099;-60
2023/01/06 01:47:31;;;;;;;2.55;0.55;;;;;;;8.01;71.04;99264.73;1706782;81;21077;-60
2023/01/06 01:50:13;;;;;;;1.98;0.42;;;;;;;7.91;69.06;99264.70;1711176;81;21101;-61
2023/01/06 01:52:41;;;;;;;1.57;0.30;;;;;;;7.76;68.15;99277.33;1722130;82;21547;-62
2023/01/06 01:55:08;;;;;;;1.02;0.30;;;;;;;7.52;68.51;99275.52;1722374;82;21233;-61
2023/01/06 01:57:44;;;;;;;1.87;0.47;;;;;;;7.30;69.16;99293.03;1722297;83;21023;-62
2023/01/06 02:00:12;;;;;;;0.77;0.20;;;;;;;7.09;69.50;99289.59;1707279;82;21025;-62
2023/01/06 02:02:41;;;;;;;3.10;0.90;;;;;;;6.93;69.94;99303.11;1716003;82;22028;-59
2023/01/06 02:05:11;;;;;;;3.27;1.05;;;;;;;6.73;70.38;99299.02;1707278;83;21558;-61
2023/01/06 02:07:39;;;;;;;3.52;1.20;;;;;;;6.61;70.45;99304.77;1707672;82;21794;-60
2023/01/06 02:10:14;;;;;;;3.27;1.25;;;;;;;6.55;70.43;99330.57;1679438;82;21045;-61
2023/01/06 02:12:42;;;;;;;4.30;1.00;;;;;;;6.33;70.68;99324.44;1707365;83;21057;-61
2023/01/06 02:15:25;;;;;;;4.37;1.92;;;;;;;6.25;70.79;99338.09;1719931;82;21517;-62
2023/01/06 02:18:37;;;;;;;5.05;2.15;;;;;;;6.20;70.72;99340.23;1722586;82;21114;-60
2023/01/06 02:21:15;;;;;;;4.78;1.95;;;;;;;6.08;70.48;99356.39;1712228;82;21275;-61
2023/01/06 02:24:04;;;;;;;3.72;1.02;;;;;;;5.92;70.42;99368.96;1717791;82;22892;-60
2023/01/06 02:27:17;;;;;;;5.90;2.55;;;;;;;5.84;70.12;99378.67;1701990;82;21975;-59
2023/01/06 02:30:01;;;;;;;4.90;1.50;;;;;;;5.74;69.80;99386.38;1712650;81;21085;-61
2023/01/06 02:32:43;;;;;;;4.30;1.70;;;;;;;5.51;69.09;99371.62;1745802;81;21063;-60
2023/01/06 02:35:16;;;;;;;2.45;0.80;;;;;;;5.47;69.02;99404.12;1735491;81;21364;-60
2023/01/06 02:38:04;;;;;;;1.85;0.60;;;;;;;5.35;68.69;99404.56;1738297;81;21626;-60
2023/01/06 02:40:57;;;;;;;3.22;1.20;;;;;;;5.19;68.67;99412.66;1708087;83;21552;-60
2023/01/06 02:43:36;;;;;;;3.17;1.07;;;;;;;5.00;69.02;99411.88;1700856;83;21134;-60
2023/01/06 02:46:20;;;;;;;2.42;0.82;;;;;;;4.93;69.35;99414.09;1708562;82;21049;-59
2023/01/06 02:49:09;;;;;;;1.60;0.60;;;;;;;4.77;69.99;99424.77;1714015;81;21291;-62
2023/01/06 02:52:00;;;;;;;2.95;1.15;;;;;;;4.75;70.27;99442.30;1741666;81;21037;-61
2023/01/06 02:54:47;;;;;;;2.47;0.78;;;;;;;4.71;70.69;99453.89;1746494;81;21060;-64
2023/01/06 02:57:38;;;;;;;3.70;1.65;;;;;;;4.59;71.02;99456.03;1737117;81;21019;-61
2023/01/06 03:00:33;;;;;;;3.30;0.70;;;;;;;4.63;71.04;99463.54;1742180;82;21082;-63
2023/01/06 03:03:06;;;;;;;4.80;1.70;;;;;;;4.61;71.17;99477.63;1731657;81;21185;-61
2023/01/06 03:05:33;;;;;;;4.33;0.85;;;;;;;4.57;71.42;99477.47;1714799;82;22430;-62
2023/01/06 03:08:07;;;;;;;3.15;1.02;;;;;;;4.49;71.46;99494.95;1719765;82;21084;-60
2023/01/06 03:10:36;;;;;;;4.08;1.82;;;;;;;4.52;71.40;99501.22;1716018;82;21081;-60
2023/01/06 03:13:34;;;;;;;2.62;0.80;;;;;;;4.53;71.35;99505.98;1682465;84;21025;-59
2023/01/06 03:16:00;;;;;;;2.70;0.90;;;;;;;4.45;71.34;99509.11;1719761;82;21547;-59
2023/01/06 03:18:29;;;;;;;3.75;1.72;;;;;;;4.46;71.35;99525.11;1717983;82;21070;-59
2023/01/06 03:20:58;;;;;;;3.10;1.00;;;;;;;4.48;71.25;99525.01;1703079;83;21061;-59
2023/01/06 03:23:25;;;;;;;4.55;2.02;;;;;;;4.46;71.19;99527.72;1703193;82;21043;-59
2023/01/06 03:25:51;;;;;;;3.05;1.10;;;;;;;4.44;71.42;99536.11;1709639;82;21051;-59
2023/01/06 03:28:20;;;;;;;2.60;0.93;;;;;;;4.46;71.43;99538.96;1701058;82;21176;-59
2023/01/06 03:30:54;;;;;;;4.20;2.20;;;;;;;4.45;71.19;99541.67;1711366;83;21063;-59
2023/01/06 03:33:32;;;;;;;4.53;1.37;;;;;;;4.43;71.05;99545.67;1707313;82;28243;-59
2023/01/06 03:36:22;;;;;;;4.33;1.17;;;;;;;4.37;70.80;99555.67;1686488;83;21089;-60
2023/01/06 03:39:13;;;;;;;4.05;1.22;;;;;;;4.34;70.80;99563.24;1695585;81;21066;-60
2023/01/06 03:45:13;;;;;;;3.02;0.82;;;;;;;4.32;69.85;99578.15;1704334;82;21109;-60
2023/01/06 03:47:48;;;;;;;5.50;1.60;;;;;;;4.32;70.08;99587.70;1712147;82;21091;-61
2023/01/06 03:50:22;;;;;;;6.65;4.20;;;;;;;4.23;69.82;99597.80;1701554;82;21170;-60
2023/01/06 03:52:59;;;;;;;4.40;1.40;;;;;;;4.22;69.70;99598.75;1690748;82;21062;-61
2023/01/06 03:55:29;;;;;;;5.05;1.50;;;;;;;4.25;69.29;99610.72;1692986;83;22095;-62
2023/01/06 03:57:57;;;;;;;4.72;2.10;;;;;;;4.22;69.41;99613.08;1703404;82;21626;-61
2023/01/06 04:00:27;;;;;;;5.47;3.45;;;;;;;4.11;69.35;99619.45;1692686;84;21541;-60
2023/01/06 04:02:56;;;;;;;4.60;1.67;;;;;;;4.08;69.31;99631.36;1700563;83;21086;-61
2023/01/06 04:05:25;;;;;;;5.55;1.50;;;;;;;4.03;69.18;99639.94;1687726;83;21122;-60
2023/01/06 04:07:52;;;;;;;4.95;1.55;;;;;;;4.02;69.42;99648.22;1701460;82;21161;-60
2023/01/06 04:10:21;;;;;;;6.95;4.22;;;;;;;4.03;69.48;99646.45;1714343;83;21166;-60
2023/01/06 04:12:49;;;;;;;6.33;2.27;;;;;;;3.97;69.61;99646.38;1711231;82;21743;-61
2023/01/06 04:15:20;;;;;;;6.20;2.22;;;;;;;3.99;69.49;99659.30;1705026;82;21039;-61
2023/01/06 04:17:47;;;;;;;5.58;2.08;;;;;;;3.93;69.39;99662.30;1695034;82;21083;-61
2023/01/06 04:20:18;;;;;;;5.95;2.10;;;;;;;3.94;69.06;99681.72;1698930;83;21245;-60
2023/01/06 04:22:45;;;;;;;4.05;1.85;;;;;;;3.99;68.71;99685.34;1702499;83;21059;-60
2023/01/06 04:25:13;;;;;;;5.62;3.22;;;;;;;3.94;67.85;99693.91;1715647;83;21214;-60
2023/01/06 04:27:41;;;;;;;4.15;1.22;;;;;;;3.90;68.00;99694.09;1700505;83;21097;-60
2023/01/06 04:30:10;;;;;;;5.70;2.47;;;;;;;3.81;67.89;99699.87;1653072;83;21083;-61
2023/01/06 04:32:38;;;;;;;4.80;2.05;;;;;;;3.76;68.06;99711.50;1697064;83;21229;-59
2023/01/06 04:35:07;;;;;;;6.62;4.53;;;;;;;3.77;67.99;99711.41;1700892;83;21057;-60
2023/01/06 04:37:34;;;;;;;5.58;2.60;;;;;;;3.77;67.79;99719.22;1699057;83;21109;-60
2023/01/06 04:40:01;;;;;;;5.62;2.05;;;;;;;3.73;67.90;99720.33;1704479;82;21042;-60
2023/01/06 04:42:27;;;;;;;5.22;1.90;;;;;;;3.67;68.01;99735.86;1681509;83;21063;-60
2023/01/06 04:44:54;;;;;;;6.85;4.30;;;;;;;3.68;67.86;99737.55;1688375;83;22320;-60
2023/01/06 04:47:21;;;;;;;5.10;1.67;;;;;;;3.74;67.90;99737.62;1698737;83;21638;-61
2023/01/06 04:49:47;;;;;;;6.25;2.30;;;;;;;3.73;67.26;99745.05;1705630;83;21165;-60
2023/01/06 04:52:15;;;;;;;7.60;5.37;;;;;;;3.65;67.16;99744.70;1699078;82;21101;-60
2023/01/06 04:54:41;;;;;;;6.00;2.87;;;;;;;3.59;67.38;99764.59;1703365;82;21102;-60
2023/01/06 04:57:08;;;;;;;5.92;2.37;;;;;;;3.52;67.51;99768.02;1704428;82;22013;-60
2023/01/06 04:59:35;;;;;;;6.08;2.45;;;;;;;3.57;67.42;99772.95;1703946;82;21564;-63
2023/01/06 05:02:02;;;;;;;8.98;5.95;;;;;;;3.54;67.45;99779.17;1709964;82;21101;-59
2023/01/06 05:04:28;;;;;;;7.45;2.95;;;;;;;3.53;67.49;99785.28;1711731;82;21063;-61
2023/01/06 05:06:55;;;;;;;5.97;2.17;;;;;;;3.50;67.50;99795.91;1698437;82;21046;-60
2023/01/06 05:09:21;;;;;;;7.22;2.90;;;;;;;3.57;67.49;99806.77;1713756;82;21265;-61
2023/01/06 05:11:48;;;;;;;7.47;3.12;;;;;;;3.59;67.54;99812.72;1695075;83;22255;-59
2023/01/06 05:14:15;;;;;;;9.80;7.40;;;;;;;3.59;67.57;99817.92;1694915;83;21179;-60
2023/01/06 05:16:41;;;;;;;6.95;2.77;;;;;;;3.56;67.49;99830.63;1693106;81;21014;-60
2023/01/06 05:19:08;;;;;;;8.38;2.92;;;;;;;3.53;67.50;99842.52;1691573;83;21034;-61
2023/01/06 05:21:34;;;;;;;7.03;3.65;;;;;;;3.51;67.28;99844.38;1681072;83;21918;-61
2023/01/06 05:24:01;;;;;;;8.73;3.15;;;;;;;3.54;66.90;99856.73;1700174;82;21166;-60
2023/01/06 05:26:27;;;;;;;8.20;3.92;;;;;;;3.57;66.83;99861.41;1724144;81;21122;-59
2023/01/06 05:28:54;;;;;;;7.90;3.47;;;;;;;3.43;66.69;99865.66;1718008;81;21117;-60
2023/01/06 05:31:21;;;;;;;7.28;3.92;;;;;;;3.44;66.95;99876.41;1725604;81;21016;-61
2023/01/06 05:33:48;;;;;;;10.20;7.33;;;;;;;3.41;67.15;99880.97;1697419;81;21931;-61
2023/01/06 05:36:16;;;;;;;8.83;4.40;;;;;;;3.43;67.16;99887.77;1715029;83;21831;-61
2023/01/06 05:38:43;;;;;;;9.53;4.40;;;;;;;3.43;67.31;99891.67;1698131;83;21069;-60
2023/01/06 05:41:10;;;;;;;8.68;2.65;;;;;;;3.34;67.49;99892.19;1694250;83;21046;-59
2023/01/06 05:43:37;;;;;;;5.67;3.08;;;;;;;3.32;67.64;99894.05;1703088;83;21063;-60
2023/01/06 05:46:06;;;;;;;9.88;6.90;;;;;;;3.29;67.64;99899.41;1702482;82;21983;-62
2023/01/06 05:48:35;;;;;;;12.45;3.12;;;;;;;3.36;67.51;99903.33;1741396;81;21117;-61
2023/01/06 05:51:05;;;;;;;9.28;6.22;;;;;;;3.32;67.69;99905.75;1749890;81;21102;-60
2023/01/06 05:53:37;;;;;;;7.92;3.35;;;;;;;3.29;67.75;99904.62;1756881;81;21038;-60
2023/01/06 05:56:05;;;;;;;8.90;2.85;;;;;;;3.23;67.75;99902.36;1745092;81;21543;-61
2023/01/06 05:58:32;;;;;;;9.00;3.75;;;;;;;3.26;67.78;99913.45;1747166;81;21500;-61
2023/01/06 06:01:00;;;;;;;8.75;6.40;;;;;;;3.25;67.79;99926.53;1730314;81;21046;-61
2023/01/06 06:03:26;;;;;;;7.45;3.70;;;;;;;3.21;67.94;99932.81;1740089;81;21188;-60
2023/01/06 06:05:53;;;;;;;7.85;3.15;;;;;;;3.11;68.27;99941.15;1737952;81;21051;-60
2023/01/06 06:08:20;;;;;;;5.92;2.33;;;;;;;3.07;68.56;99953.09;1736496;81;21089;-61
2023/01/06 06:10:46;;;;;;;8.98;5.90;;;;;;;3.07;68.74;99965.63;1744474;81;21241;-60
2023/01/06 06:13:13;;;;;;;6.87;2.45;;;;;;;3.14;68.68;99965.68;1702172;82;21528;-60
2023/01/06 06:15:40;;;;;;;7.15;2.62;;;;;;;3.11;68.45;99963.69;1733217;81;21066;-60
2023/01/06 06:18:07;;;;;;;7.58;3.08;;;;;;;3.08;68.51;99976.41;1742194;81;21085;-60
2023/01/06 06:20:33;;;;;;;8.50;3.83;;;;;;;3.05;68.76;99983.08;1740023;81;21038;-61
2023/01/06 06:23:00;;;;;;;6.50;2.87;;;;;;;3.07;68.66;99998.59;1738671;81;21612;-60
2023/01/06 06:25:28;;;;;;;6.65;2.92;;;;;;;3.09;68.53;99997.59;1695637;82;21000;-63
2023/01/06 06:27:58;;;;;;;12.45;2.98;;;;;;;3.05;68.62;100010.37;1739494;81;21597;-60
2023/01/06 06:30:25;;;;;;;8.55;6.00;;;;;;;3.04;68.89;100023.45;1724083;82;22417;-59
2023/01/06 06:32:52;;;;;;;6.83;2.83;;;;;;;3.03;68.91;100030.41;1678403;84;21157;-59
2023/01/06 06:35:18;;;;;;;7.12;2.35;;;;;;;3.07;68.96;100029.31;1677012;84;21284;-60
2023/01/06 06:37:45;;;;;;;6.15;2.52;;;;;;;3.10;69.06;100038.72;1684972;84;21087;-60
2023/01/06 06:40:11;;;;;;;7.80;3.42;;;;;;;3.09;69.33;100043.53;1696845;82;21136;-59
2023/01/06 06:42:39;;;;;;;6.15;2.40;;;;;;;3.08;69.48;100047.90;1703772;83;21084;-59
2023/01/06 06:45:07;;;;;;;5.00;1.80;;;;;;;3.06;69.60;100057.55;1713091;82;21049;-60
2023/01/06 06:47:33;;;;;;;9.68;5.47;;;;;;;3.08;69.61;100061.37;1734901;81;21151;-60
2023/01/06 06:50:00;;;;;;;6.83;2.65;;;;;;;3.09;69.82;100063.02;1751785;81;21243;-60
2023/01/06 06:52:27;;;;;;;7.30;3.75;;;;;;;3.10;70.09;100071.22;1731110;81;21084;-60
2023/01/06 06:54:53;;;;;;;7.28;3.47;;;;;;;3.02;70.47;100079.41;1711778;81;21133;-60
2023/01/06 06:57:20;;;;;;;6.60;3.33;;;;;;;2.94;70.76;100081.58;1721754;81;21031;-58
2023/01/06 06:59:47;;;;;;;6.83;2.52;;;;;;;2.88;71.03;100086.66;1709359;83;21855;-59
2023/01/06 07:02:14;;;;;;;6.40;2.92;;;;;;;2.87;71.14;100088.03;1701264;82;21276;-59
2023/01/06 07:04:41;;;;;;;6.53;2.37;;;;;;;2.81;71.14;100094.41;1707366;83;21079;-60
2023/01/06 07:07:08;;;;;;;7.70;5.25;;;;;;;2.77;71.19;100107.16;1700127;83;21055;-61
2023/01/06 07:09:36;;;;;;;6.25;1.90;;;;;;;2.77;71.12;100116.25;1730020;81;21050;-61
2023/01/06 07:12:04;;;;;;;7.53;2.37;;;;;;;2.81;71.19;100127.32;1751475;81;21213;-61
2023/01/06 07:14:31;;;;;;;7.90;2.52;;;;;;;2.86;71.07;100129.22;1714698;81;21612;-59
2023/01/06 07:17:01;;;;;;;6.78;2.17;;;;;;;2.85;70.48;100132.28;1723241;82;21055;-62
2023/01/06 07:19:27;;;;;;;6.12;2.22;;;;;;;2.84;70.35;100138.86;1712006;81;21567;-61
2023/01/06 07:21:54;;;;;;;7.37;2.80;;;;;;;2.77;70.49;100144.39;1714500;83;21436;-61
2023/01/06 07:24:21;;;;;;;6.97;4.50;;;;;;;2.81;70.49;100165.00;1717258;82;21273;-63
2023/01/06 07:26:49;;;;;;;8.75;3.00;;;;;;;2.87;70.32;100160.80;1703598;83;21626;-61
2023/01/06 07:29:16;;;;;;;6.15;2.87;;;;;;;2.89;70.16;100178.45;1701663;82;21583;-60
2023/01/06 07:31:43;;;;;;;6.50;2.65;;;;;;;2.84;70.44;100181.73;1698266;82;21563;-61
2023/01/06 07:34:09;;;;;;;6.25;2.05;;;;;;;2.82;70.48;100190.08;1714288;82;21058;-61
2023/01/06 07:36:36;;;;;;;5.83;2.27;;;;;;;2.82;70.35;100203.08;1709818;82;21160;-60
2023/01/06 07:39:03;;;;;;;5.67;2.27;;;;;;;2.84;70.31;100199.92;1705582;82;21066;-61
2023/01/06 07:41:31;;;;;;;6.62;3.90;;;;;;;2.79;69.02;100220.94;1710644;82;21103;-60
2023/01/06 07:43:58;;;;;;;6.17;1.70;;;;;;;2.72;68.36;100219.58;1705419;82;21063;-59
2023/01/06 07:46:25;;;;;;;5.50;1.90;;;;;;;2.67;68.23;100237.16;1700456;82;21071;-61
2023/01/06 07:48:51;;;;;;;6.65;2.72;;;;;;;2.66;68.03;100241.52;1701948;82;22193;-61
2023/01/06 07:51:18;;;;;;;5.17;2.10;;;;;;;2.71;68.28;100253.82;1702609;83;21085;-61
2023/01/06 07:53:44;;;;;;;5.03;1.77;;;;;;;2.63;68.78;100255.95;1703526;82;21068;-60
2023/01/06 07:56:11;;;;;;;4.55;1.47;;;;;;;2.58;69.03;100259.23;1706553;83;21218;-60
2023/01/06 07:58:37;;;;;;;3.22;1.27;;;;;;;2.53;69.01;100267.24;1719013;82;21089;-60
2023/01/06 08:01:06;;;;;;;4.08;1.42;;;;;;;2.50;68.75;100271.75;1717930;82;21586;-60
2023/01/06 08:03:32;;;;;;;4.35;1.80;;;;;;;2.45;68.45;100281.52;1713227;82;21069;-61
2023/01/06 08:05:59;;;;;;;4.55;1.87;;;;;;;2.33;68.46;100283.78;1728438;82;21031;-61
2023/01/06 08:08:25;;;;;;;3.35;1.10;;;;;;;2.23;68.15;100296.34;1736911;82;21073;-61
2023/01/06 08:10:53;;;;;;;4.22;1.37;;;;;;;2.23;68.01;100303.30;1735702;82;21873;-60
2023/01/06 08:13:19;;;;;;;3.50;0.98;;;;;;;2.15;67.77;100312.77;1729378;82;21312;-61
2023/01/06 08:15:50;;;;;;;5.12;1.30;;;;;;;2.12;67.46;100326.31;1719322;82;21078;-60
2023/01/06 08:18:14;;;;;;;4.55;1.55;;;;;;;2.06;67.60;100318.83;1702654;82;21094;-61
2023/01/06 08:20:41;;;;;;;3.60;1.00;;;;;;;2.00;67.61;100329.88;1705708;82;21043;-60
2023/01/06 08:23:07;;;;;;;4.15;1.62;;;;;;;1.98;68.15;100337.33;1708278;82;21117;-61
2023/01/06 08:25:34;;;;;;;4.83;1.98;;;;;;;1.92;68.46;100357.92;1709190;82;22520;-60
2023/01/06 08:28:00;;;;;;;9.50;3.10;;;;;;;1.96;68.60;100358.63;1696008;83;21589;-60
2023/01/06 08:30:27;;;;;;;7.10;3.72;;;;;;;1.92;68.70;100375.25;1714739;82;21198;-61
2023/01/06 08:32:58;;;;;;;5.40;2.55;;;;;;;1.92;69.02;100376.55;1703132;82;21101;-61
2023/01/06 08:35:25;;;;;;;9.85;3.37;;;;;;;1.96;69.09;100378.92;1702045;82;21360;-60
2023/01/06 08:37:51;;;;;;;8.63;3.25;;;;;;;2.01;68.79;100382.16;1702883;82;21904;-61
2023/01/06 08:40:18;;;;;;;8.80;2.67;;;;;;;2.00;68.95;100380.48;1706485;82;21517;-60
2023/01/06 08:42:44;;;;;;;5.22;1.67;;;;;;;2.01;68.35;100378.72;1711732;82;21105;-60
2023/01/06 08:45:12;;;;;;;5.28;1.80;;;;;;;2.06;67.78;100375.93;1711943;82;21202;-61
2023/01/06 08:47:40;;;;;;;4.85;1.95;;;;;;;1.97;67.26;100370.23;1713915;82;21499;-60
2023/01/06 08:50:07;;;;;;;5.78;1.82;;;;;;;1.97;67.64;100377.19;1702980;82;22052;-61
2023/01/06 08:52:34;;;;;;;5.03;2.15;;;;;;;1.96;67.46;100388.47;1711012;82;21130;-59
2023/01/06 08:55:00;;;;;;;4.97;2.00;;;;;;;1.91;67.33;100383.47;1705056;82;21082;-59
2023/01/06 08:57:27;;;;;;;7.53;3.10;;;;;;;1.91;66.99;100391.72;1702941;82;21096;-59
2023/01/06 08:59:54;;;;;;;6.30;2.20;;;;;;;1.90;66.75;100394.78;1701108;82;21046;-59
2023/01/06 09:02:22;;;;;;;6.05;1.90;;;;;;;1.95;66.89;100406.23;1705264;82;21051;-59
2023/01/06 09:04:48;;;;;;;8.00;3.15;;;;;;;1.92;66.37;100406.39;1701965;83;21170;-59
2023/01/06 09:07:15;;;;;;;6.50;2.67;;;;;;;1.92;66.67;100412.42;1703968;83;21066;-59
2023/01/06 09:09:41;;;;;;;5.97;2.60;;;;;;;1.88;66.55;100413.44;1713782;82;21572;-59
2023/01/06 09:12:08;;;;;;;5.47;2.17;;;;;;;1.86;66.61;100416.10;1719162;82;21564;-60
2023/01/06 09:14:37;;;;;;;6.30;2.85;;;;;;;1.87;66.97;100414.38;1711106;82;21279;-59
2023/01/06 09:17:07;;;;;;;6.08;2.77;;;;;;;1.84;66.70;100414.50;1702884;82;21055;-59
2023/01/06 09:19:34;;;;;;;8.05;4.15;;;;;;;1.79;66.37;100412.56;1708726;82;21080;-60
2023/01/06 09:22:00;;;;;;;5.25;1.92;;;;;;;1.61;65.32;100429.28;1715933;82;21138;-60
2023/01/06 09:24:27;;;;;;;5.67;2.90;;;;;;;1.70;65.60;100440.17;1729562;82;21119;-60
2023/01/06 09:26:54;;;;;;;5.92;2.22;;;;;;;1.59;65.79;100433.69;1701954;82;21301;-59
2023/01/06 09:29:20;;;;;;;7.20;2.92;;;;;;;1.55;66.20;100426.96;1718487;82;22216;-59
2023/01/06 09:34:00;;;;;;;8.63;3.40;;;;;;;1.30;67.80;100444.81;1783807;79;22373;-60
2023/01/06 09:36:27;;;;;;;6.12;2.95;;;;;;;1.52;67.39;100450.42;1726236;83;21065;-59
2023/01/06 09:38:53;;;;;;;10.63;3.98;;;;;;;1.53;67.02;100456.02;1726183;82;22177;-60
2023/01/06 09:42:01;;;;;;;8.35;3.02;;;;;;;1.58;67.07;100461.85;1726275;81;21089;-60
2023/01/06 09:44:31;;;;;;;7.83;3.75;;;;;;;1.58;66.37;100462.28;1749979;81;21046;-60
2023/01/06 09:46:59;;;;;;;7.95;4.05;;;;;;;1.53;66.27;100470.28;1745545;81;21023;-61
2023/01/06 09:49:43;;;;;;;8.60;3.67;;;;;;;1.43;65.79;100472.83;1756298;81;20970;-60
2023/01/06 09:52:30;;;;;;;7.37;3.45;;;;;;;1.42;65.38;100482.37;1745328;80;21886;-59
2023/01/06 09:55:35;;;;;;;6.20;2.60;;;;;;;1.34;65.57;100471.92;1728323;81;21599;-60
2023/01/06 10:00:42;;;;;;;8.08;2.90;;;;;;;1.11;65.84;100471.94;1804903;77;21959;-60
2023/01/06 10:03:19;;;;;;;7.62;3.40;;;;;;;1.23;65.22;100473.20;1787193;78;20923;-59
2023/01/06 10:06:09;;;;;;;6.78;2.65;;;;;;;1.20;64.79;100469.89;1777140;78;21926;-59
2023/01/06 10:08:56;;;;;;;8.00;4.03;;;;;;;1.36;64.77;100485.66;1789100;78;20950;-59
2023/01/06 10:11:34;;;;;;;7.53;4.45;;;;;;;1.26;64.14;100493.82;1795373;78;21575;-59
2023/01/06 10:14:43;;;;;;;7.20;3.50;;;;;;;1.17;63.81;100491.58;1756807;81;20981;-59
2023/01/06 10:17:43;;;;;;;8.10;4.08;;;;;;;1.12;64.15;100506.46;1780195;79;21092;-59
2023/01/06 10:20:43;;;;;;;6.78;3.40;;;;;;;1.12;63.99;100507.76;1760764;80;21280;-59
2023/01/06 10:23:30;;;;;;;6.72;2.95;;;;;;;1.10;64.03;100519.94;1793662;78;21040;-58
2023/01/06 10:26:13;;;;;;;6.22;2.17;;;;;;;1.09;64.38;100515.64;1794475;78;21098;-58
2023/01/06 10:28:43;;;;;;;9.33;4.03;;;;;;;1.03;64.20;100520.62;1806334;78;21021;-58
2023/01/06 10:31:17;;;;;;;7.05;3.25;;;;;;;1.03;64.27;100534.05;1777518;78;21439;-58
2023/01/06 10:33:53;;;;;;;6.67;3.33;;;;;;;0.98;64.40;100535.97;1779006;78;22039;-58
2023/01/06 10:36:33;;;;;;;7.28;3.47;;;;;;;0.86;64.20;100545.87;1750412;78;20901;-59
2023/01/06 10:39:00;;;;;;;8.30;2.95;;;;;;;0.85;63.77;100534.28;1779815;78;21574;-58
2023/01/06 10:41:45;;;;;;;13.32;3.83;;;;;;;0.92;64.03;100544.36;1748628;78;21520;-58
2023/01/06 10:44:11;;;;;;;8.23;3.15;;;;;;;0.92;63.81;100557.32;1778349;78;21578;-58
2023/01/06 10:46:38;;;;;;;7.17;3.60;;;;;;;0.92;64.22;100565.09;1778605;78;21264;-59
2023/01/06 10:49:11;;;;;;;7.67;2.77;;;;;;;0.93;63.86;100568.05;1781630;78;21494;-59
2023/01/06 10:51:47;;;;;;;5.55;2.25;;;;;;;0.91;63.05;100567.28;1793942;79;21045;-59
2023/01/06 10:54:21;;;;;;;5.22;1.80;;;;;;;0.91;62.89;100568.57;1777318;79;21014;-59
2023/01/06 10:56:52;;;;;;;5.28;1.92;;;;;;;0.92;62.66;100579.34;1787998;80;21049;-59
2023/01/06 10:59:19;;;;;;;5.65;2.05;;;;;;;0.92;62.29;100575.45;1783466;78;22048;-60
2023/01/06 11:01:55;;;;;;;4.00;1.50;;;;;;;0.80;61.86;100588.00;1771741;80;21029;-59
2023/01/06 11:04:24;;;;;;;5.30;2.00;;;;;;;0.88;62.53;100603.66;1741089;82;21100;-59
2023/01/06 11:07:00;;;;;;;4.80;2.00;;;;;;;0.78;62.27;100599.71;1729960;81;21146;-59
2023/01/06 11:09:42;;;;;;;5.80;2.55;;;;;;;0.78;62.64;100599.71;1670744;84;21077;-59
2023/01/06 11:12:18;;;;;;;5.85;1.95;;;;;;;0.74;63.04;100603.33;1717893;80;21849;-60
2023/01/06 11:14:59;;;;;;;6.85;2.27;;;;;;;0.68;63.13;100606.95;1727964;82;21576;-59
2023/01/06 11:17:26;;;;;;;4.53;1.22;;;;;;;0.69;63.42;100614.27;1725871;82;20977;-59
2023/01/06 11:20:18;;;;;;;5.20;1.80;;;;;;;0.70;63.37;100600.44;1722948;83;21031;-59
2023/01/06 11:22:45;;;;;;;4.47;1.50;;;;;;;0.66;63.31;100606.63;1759698;81;20916;-59
2023/01/06 11:25:31;;;;;;;5.00;1.95;;;;;;;0.62;63.34;100607.16;1698808;82;21145;-59
2023/01/06 11:28:18;;;;;;;4.22;1.40;;;;;;;0.63;63.70;100613.21;1730511;82;21377;-59
2023/01/06 11:31:02;;;;;;;4.10;1.15;;;;;;;0.59;63.49;100602.55;1744552;80;21505;-59
2023/01/06 11:33:32;;;;;;;6.53;2.45;;;;;;;0.53;63.36;100619.98;1723691;83;21095;-58
2023/01/06 11:36:02;;;;;;;4.62;1.95;;;;;;;0.49;63.51;100624.05;1730396;81;21101;-59
2023/01/06 11:38:28;;;;;;;4.40;1.70;;;;;;;0.50;63.39;100636.92;1683909;83;21089;-59
2023/01/06 11:40:54;;;;;;;6.45;2.33;;;;;;;0.48;63.21;100633.55;1729059;82;21062;-59
2023/01/06 11:43:24;;;;;;;5.10;1.90;;;;;;;0.45;63.08;100645.30;1729465;83;21022;-59
2023/01/06 11:46:00;;;;;;;4.55;1.60;;;;;;;0.41;62.72;100655.38;1699452;83;21586;-59
2023/01/06 11:48:41;;;;;;;4.60;1.70;;;;;;;0.43;62.90;100663.09;1725416;83;21658;-59
2023/01/06 11:51:08;;;;;;;4.58;1.80;;;;;;;0.36;62.74;100660.70;1728275;81;21061;-59
2023/01/06 11:53:37;;;;;;;5.30;2.02;;;;;;;0.40;63.99;100660.14;1726326;83;21104;-59
2023/01/06 11:56:17;;;;;;;4.60;1.70;;;;;;;0.35;63.19;100656.86;1729043;83;21089;-59
2023/01/06 11:59:08;;;;;;;3.62;1.40;;;;;;;0.38;63.24;100663.23;1730233;81;21021;-59
2023/01/06 12:01:44;;;;;;;4.28;1.52;;;;;;;0.39;63.67;100664.94;1756061;80;21092;-59
2023/01/06 12:04:40;;;;;;;4.40;1.72;;;;;;;0.42;64.09;100670.45;1750133;81;21225;-61
2023/01/06 12:07:13;;;;;;;;;;;;;;;0.39;63.31;100668.83;1759166;80;21123;-60